sensor_id;sensor_type;location;lat;lon;timestamp;P1;durP1;ratioP1;P2;durP2;ratioP2
35028;SDS011;35394;54.282;10.070;2023-12-07T00:00:05;135.15;;;61.72;;
35028;SDS011;35394;54.282;10.070;2023-12-07T00:00:38;132.95;;;61.70;;
35028;SDS011;35394;54.282;10.070;2023-12-07T00:01:08;128.52;;;60.05;;
35028;SDS011;35394;54.282;10.070;2023-12-07T00:01:39;136.10;;;63.25;;
35028;SDS011;35394;54.282;10.070;2023-12-07T00:02:09;156.93;;;71.93;;
35028;SDS011;35394;54.282;10.070;2023-12-07T00:02:42;154.60;;;72.57;;
35028;SDS011;35394;54.282;10.070;2023-12-07T00:03:12;158.60;;;72.90;;
35028;SDS011;35394;54.282;10.070;2023-12-07T00:03:45;155.95;;;71.53;;
35028;SDS011;35394;54.282;10.070;2023-12-07T00:04:15;140.90;;;65.97;;
35028;SDS011;35394;54.282;10.070;2023-12-07T00:04:46;142.23;;;66.67;;
35028;SDS011;35394;54.282;10.070;2023-12-07T00:05:17;147.20;;;70.03;;
35028;SDS011;35394;54.282;10.070;2023-12-07T00:05:47;136.03;;;64.77;;
35028;SDS011;35394;54.282;10.070;2023-12-07T00:06:18;124.10;;;61.30;;
35028;SDS011;35394;54.282;10.070;2023-12-07T00:06:48;113.00;;;58.40;;
35028;SDS011;35394;54.282;10.070;2023-12-07T00:07:19;121.03;;;58.57;;
35028;SDS011;35394;54.282;10.070;2023-12-07T00:07:50;123.55;;;63.13;;
35028;SDS011;35394;54.282;10.070;2023-12-07T00:08:20;118.55;;;59.53;;
35028;SDS011;35394;54.282;10.070;2023-12-07T00:08:51;130.13;;;64.70;;
35028;SDS011;35394;54.282;10.070;2023-12-07T00:09:21;118.13;;;58.13;;
35028;SDS011;35394;54.282;10.070;2023-12-07T00:09:52;114.63;;;58.13;;
35028;SDS011;35394;54.282;10.070;2023-12-07T00:10:22;114.50;;;57.27;;
35028;SDS011;35394;54.282;10.070;2023-12-07T00:10:53;111.30;;;57.13;;
35028;SDS011;35394;54.282;10.070;2023-12-07T00:11:24;122.72;;;61.42;;
35028;SDS011;35394;54.282;10.070;2023-12-07T00:11:54;119.13;;;58.30;;
35028;SDS011;35394;54.282;10.070;2023-12-07T00:12:25;115.37;;;57.57;;
35028;SDS011;35394;54.282;10.070;2023-12-07T00:12:56;113.72;;;57.75;;
35028;SDS011;35394;54.282;10.070;2023-12-07T00:13:27;109.00;;;56.13;;
35028;SDS011;35394;54.282;10.070;2023-12-07T00:13:57;111.43;;;55.33;;
35028;SDS011;35394;54.282;10.070;2023-12-07T00:14:28;105.57;;;53.53;;
35028;SDS011;35394;54.282;10.070;2023-12-07T00:14:59;107.82;;;54.10;;
35028;SDS011;35394;54.282;10.070;2023-12-07T00:15:29;100.38;;;51.60;;
35028;SDS011;35394;54.282;10.070;2023-12-07T00:16:00;111.70;;;56.70;;
35028;SDS011;35394;54.282;10.070;2023-12-07T00:16:30;117.55;;;58.75;;
35028;SDS011;35394;54.282;10.070;2023-12-07T00:17:01;119.28;;;58.08;;
35028;SDS011;35394;54.282;10.070;2023-12-07T00:17:32;111.75;;;56.72;;
35028;SDS011;35394;54.282;10.070;2023-12-07T00:18:03;113.00;;;57.27;;
35028;SDS011;35394;54.282;10.070;2023-12-07T00:18:33;113.25;;;55.78;;
35028;SDS011;35394;54.282;10.070;2023-12-07T00:19:04;134.52;;;62.42;;
35028;SDS011;35394;54.282;10.070;2023-12-07T00:19:35;145.18;;;67.35;;
35028;SDS011;35394;54.282;10.070;2023-12-07T00:20:05;143.30;;;67.03;;
35028;SDS011;35394;54.282;10.070;2023-12-07T00:20:37;142.50;;;65.50;;
35028;SDS011;35394;54.282;10.070;2023-12-07T00:21:08;122.32;;;59.88;;
35028;SDS011;35394;54.282;10.070;2023-12-07T00:21:39;139.40;;;65.32;;
35028;SDS011;35394;54.282;10.070;2023-12-07T00:22:10;139.20;;;66.07;;
35028;SDS011;35394;54.282;10.070;2023-12-07T00:22:40;131.77;;;62.70;;
35028;SDS011;35394;54.282;10.070;2023-12-07T00:23:11;113.80;;;57.95;;
35028;SDS011;35394;54.282;10.070;2023-12-07T00:23:42;125.67;;;58.50;;
35028;SDS011;35394;54.282;10.070;2023-12-07T00:24:12;123.60;;;59.55;;
35028;SDS011;35394;54.282;10.070;2023-12-07T00:24:43;141.80;;;65.30;;
35028;SDS011;35394;54.282;10.070;2023-12-07T00:25:13;150.10;;;69.55;;
35028;SDS011;35394;54.282;10.070;2023-12-07T00:25:44;142.38;;;65.97;;
35028;SDS011;35394;54.282;10.070;2023-12-07T00:26:15;135.25;;;62.63;;
35028;SDS011;35394;54.282;10.070;2023-12-07T00:26:46;133.02;;;62.08;;
35028;SDS011;35394;54.282;10.070;2023-12-07T00:27:17;150.57;;;67.47;;
35028;SDS011;35394;54.282;10.070;2023-12-07T00:27:48;127.47;;;59.70;;
35028;SDS011;35394;54.282;10.070;2023-12-07T00:28:19;138.88;;;62.97;;
35028;SDS011;35394;54.282;10.070;2023-12-07T00:28:49;143.30;;;65.43;;
35028;SDS011;35394;54.282;10.070;2023-12-07T00:29:20;117.00;;;57.50;;
35028;SDS011;35394;54.282;10.070;2023-12-07T00:29:50;114.00;;;57.23;;
35028;SDS011;35394;54.282;10.070;2023-12-07T00:30:21;102.25;;;53.47;;
35028;SDS011;35394;54.282;10.070;2023-12-07T00:30:51;111.25;;;54.92;;
35028;SDS011;35394;54.282;10.070;2023-12-07T00:31:22;115.20;;;55.10;;
35028;SDS011;35394;54.282;10.070;2023-12-07T00:31:52;112.82;;;55.47;;
35028;SDS011;35394;54.282;10.070;2023-12-07T00:32:23;112.17;;;55.90;;
35028;SDS011;35394;54.282;10.070;2023-12-07T00:32:54;111.70;;;55.10;;
35028;SDS011;35394;54.282;10.070;2023-12-07T00:33:24;113.25;;;54.97;;
35028;SDS011;35394;54.282;10.070;2023-12-07T00:33:55;108.13;;;52.80;;
35028;SDS011;35394;54.282;10.070;2023-12-07T00:34:25;119.70;;;57.40;;
35028;SDS011;35394;54.282;10.070;2023-12-07T00:34:56;133.57;;;62.00;;
35028;SDS011;35394;54.282;10.070;2023-12-07T00:35:26;110.97;;;54.50;;
35028;SDS011;35394;54.282;10.070;2023-12-07T00:35:58;111.88;;;55.00;;
35028;SDS011;35394;54.282;10.070;2023-12-07T00:36:29;107.22;;;53.40;;
35028;SDS011;35394;54.282;10.070;2023-12-07T00:37:00;107.82;;;52.75;;
35028;SDS011;35394;54.282;10.070;2023-12-07T00:37:30;118.97;;;56.57;;
35028;SDS011;35394;54.282;10.070;2023-12-07T00:38:01;123.30;;;57.63;;
35028;SDS011;35394;54.282;10.070;2023-12-07T00:38:32;109.20;;;52.78;;
35028;SDS011;35394;54.282;10.070;2023-12-07T00:39:02;91.88;;;48.78;;
35028;SDS011;35394;54.282;10.070;2023-12-07T00:39:34;96.20;;;48.75;;
35028;SDS011;35394;54.282;10.070;2023-12-07T00:40:04;116.70;;;54.45;;
35028;SDS011;35394;54.282;10.070;2023-12-07T00:40:35;127.97;;;58.30;;
35028;SDS011;35394;54.282;10.070;2023-12-07T00:41:08;106.05;;;52.88;;
35028;SDS011;35394;54.282;10.070;2023-12-07T00:41:39;128.57;;;59.70;;
35028;SDS011;35394;54.282;10.070;2023-12-07T00:42:09;113.10;;;54.40;;
35028;SDS011;35394;54.282;10.070;2023-12-07T00:42:40;117.65;;;55.80;;
35028;SDS011;35394;54.282;10.070;2023-12-07T00:43:10;122.90;;;56.80;;
35028;SDS011;35394;54.282;10.070;2023-12-07T00:43:42;111.10;;;54.13;;
35028;SDS011;35394;54.282;10.070;2023-12-07T00:44:15;114.60;;;54.73;;
35028;SDS011;35394;54.282;10.070;2023-12-07T00:44:46;130.48;;;59.90;;
35028;SDS011;35394;54.282;10.070;2023-12-07T00:45:16;104.83;;;51.60;;
35028;SDS011;35394;54.282;10.070;2023-12-07T00:45:47;115.35;;;55.22;;
35028;SDS011;35394;54.282;10.070;2023-12-07T00:46:18;118.53;;;55.20;;
35028;SDS011;35394;54.282;10.070;2023-12-07T00:46:48;117.57;;;54.70;;
35028;SDS011;35394;54.282;10.070;2023-12-07T00:47:19;120.30;;;56.53;;
35028;SDS011;35394;54.282;10.070;2023-12-07T00:47:50;117.85;;;54.00;;
35028;SDS011;35394;54.282;10.070;2023-12-07T00:48:20;116.15;;;53.60;;
35028;SDS011;35394;54.282;10.070;2023-12-07T00:48:51;114.10;;;53.33;;
35028;SDS011;35394;54.282;10.070;2023-12-07T00:49:21;108.80;;;53.08;;
35028;SDS011;35394;54.282;10.070;2023-12-07T00:49:52;124.80;;;56.00;;
35028;SDS011;35394;54.282;10.070;2023-12-07T00:50:22;123.65;;;56.17;;
35028;SDS011;35394;54.282;10.070;2023-12-07T00:50:53;127.97;;;59.33;;
35028;SDS011;35394;54.282;10.070;2023-12-07T00:51:23;127.33;;;57.73;;
35028;SDS011;35394;54.282;10.070;2023-12-07T00:51:55;152.20;;;66.63;;
35028;SDS011;35394;54.282;10.070;2023-12-07T00:52:25;135.20;;;62.57;;
35028;SDS011;35394;54.282;10.070;2023-12-07T00:52:56;130.25;;;59.53;;
35028;SDS011;35394;54.282;10.070;2023-12-07T00:53:27;140.82;;;63.35;;
35028;SDS011;35394;54.282;10.070;2023-12-07T00:53:57;138.33;;;62.20;;
35028;SDS011;35394;54.282;10.070;2023-12-07T00:54:28;142.20;;;62.40;;
35028;SDS011;35394;54.282;10.070;2023-12-07T00:54:59;132.80;;;59.33;;
35028;SDS011;35394;54.282;10.070;2023-12-07T00:55:29;134.52;;;61.03;;
35028;SDS011;35394;54.282;10.070;2023-12-07T00:56:00;148.30;;;65.03;;
35028;SDS011;35394;54.282;10.070;2023-12-07T00:56:33;123.45;;;57.65;;
35028;SDS011;35394;54.282;10.070;2023-12-07T00:57:04;134.25;;;60.45;;
35028;SDS011;35394;54.282;10.070;2023-12-07T00:57:35;138.20;;;63.88;;
35028;SDS011;35394;54.282;10.070;2023-12-07T00:58:05;137.07;;;60.90;;
35028;SDS011;35394;54.282;10.070;2023-12-07T00:58:36;136.33;;;60.33;;
35028;SDS011;35394;54.282;10.070;2023-12-07T00:59:08;112.15;;;54.47;;
35028;SDS011;35394;54.282;10.070;2023-12-07T00:59:39;113.33;;;55.17;;
35028;SDS011;35394;54.282;10.070;2023-12-07T01:00:09;118.95;;;56.10;;
35028;SDS011;35394;54.282;10.070;2023-12-07T01:00:40;114.78;;;54.42;;
35028;SDS011;35394;54.282;10.070;2023-12-07T01:01:11;108.60;;;51.95;;
35028;SDS011;35394;54.282;10.070;2023-12-07T01:01:42;116.85;;;55.17;;
35028;SDS011;35394;54.282;10.070;2023-12-07T01:02:12;127.13;;;57.93;;
35028;SDS011;35394;54.282;10.070;2023-12-07T01:02:43;129.13;;;57.95;;
35028;SDS011;35394;54.282;10.070;2023-12-07T01:03:14;122.07;;;55.38;;
35028;SDS011;35394;54.282;10.070;2023-12-07T01:03:45;116.03;;;54.90;;
35028;SDS011;35394;54.282;10.070;2023-12-07T01:04:15;126.82;;;57.10;;
35028;SDS011;35394;54.282;10.070;2023-12-07T01:04:46;112.77;;;54.20;;
35028;SDS011;35394;54.282;10.070;2023-12-07T01:05:16;129.15;;;58.55;;
35028;SDS011;35394;54.282;10.070;2023-12-07T01:05:47;118.03;;;55.05;;
35028;SDS011;35394;54.282;10.070;2023-12-07T01:06:18;121.37;;;55.70;;
35028;SDS011;35394;54.282;10.070;2023-12-07T01:06:48;111.50;;;53.15;;
35028;SDS011;35394;54.282;10.070;2023-12-07T01:07:19;113.63;;;52.67;;
35028;SDS011;35394;54.282;10.070;2023-12-07T01:07:49;111.03;;;52.00;;
35028;SDS011;35394;54.282;10.070;2023-12-07T01:08:20;105.10;;;51.00;;
35028;SDS011;35394;54.282;10.070;2023-12-07T01:08:51;106.38;;;51.08;;
35028;SDS011;35394;54.282;10.070;2023-12-07T01:09:21;93.50;;;47.10;;
35028;SDS011;35394;54.282;10.070;2023-12-07T01:09:52;107.30;;;50.72;;
35028;SDS011;35394;54.282;10.070;2023-12-07T01:10:23;120.67;;;56.07;;
35028;SDS011;35394;54.282;10.070;2023-12-07T01:10:54;107.70;;;53.60;;
35028;SDS011;35394;54.282;10.070;2023-12-07T01:11:24;123.53;;;56.13;;
35028;SDS011;35394;54.282;10.070;2023-12-07T01:11:55;115.63;;;53.13;;
35028;SDS011;35394;54.282;10.070;2023-12-07T01:12:28;130.25;;;56.72;;
35028;SDS011;35394;54.282;10.070;2023-12-07T01:12:58;136.00;;;59.75;;
35028;SDS011;35394;54.282;10.070;2023-12-07T01:13:29;124.80;;;55.87;;
35028;SDS011;35394;54.282;10.070;2023-12-07T01:14:00;134.10;;;59.90;;
35028;SDS011;35394;54.282;10.070;2023-12-07T01:14:31;132.03;;;59.10;;
35028;SDS011;35394;54.282;10.070;2023-12-07T01:15:02;122.53;;;56.80;;
35028;SDS011;35394;54.282;10.070;2023-12-07T01:15:33;125.72;;;55.85;;
35028;SDS011;35394;54.282;10.070;2023-12-07T01:16:04;117.70;;;53.67;;
35028;SDS011;35394;54.282;10.070;2023-12-07T01:16:35;106.50;;;52.03;;
35028;SDS011;35394;54.282;10.070;2023-12-07T01:17:05;106.90;;;49.93;;
35028;SDS011;35394;54.282;10.070;2023-12-07T01:17:36;123.18;;;55.28;;
35028;SDS011;35394;54.282;10.070;2023-12-07T01:18:07;108.45;;;50.47;;
35028;SDS011;35394;54.282;10.070;2023-12-07T01:18:38;105.63;;;50.05;;
35028;SDS011;35394;54.282;10.070;2023-12-07T01:19:09;99.38;;;48.53;;
35028;SDS011;35394;54.282;10.070;2023-12-07T01:19:40;118.80;;;53.20;;
35028;SDS011;35394;54.282;10.070;2023-12-07T01:20:10;106.43;;;49.93;;
35028;SDS011;35394;54.282;10.070;2023-12-07T01:20:42;114.82;;;52.17;;
35028;SDS011;35394;54.282;10.070;2023-12-07T01:21:13;99.63;;;47.57;;
35028;SDS011;35394;54.282;10.070;2023-12-07T01:21:44;117.07;;;52.95;;
35028;SDS011;35394;54.282;10.070;2023-12-07T01:22:14;108.10;;;50.40;;
35028;SDS011;35394;54.282;10.070;2023-12-07T01:22:45;114.97;;;51.73;;
35028;SDS011;35394;54.282;10.070;2023-12-07T01:23:16;110.72;;;50.75;;
35028;SDS011;35394;54.282;10.070;2023-12-07T01:23:46;94.00;;;46.92;;
35028;SDS011;35394;54.282;10.070;2023-12-07T01:24:17;104.50;;;49.25;;
35028;SDS011;35394;54.282;10.070;2023-12-07T01:24:47;116.67;;;53.00;;
35028;SDS011;35394;54.282;10.070;2023-12-07T01:25:18;113.88;;;51.88;;
35028;SDS011;35394;54.282;10.070;2023-12-07T01:25:51;112.65;;;52.20;;
35028;SDS011;35394;54.282;10.070;2023-12-07T01:26:22;107.65;;;51.72;;
35028;SDS011;35394;54.282;10.070;2023-12-07T01:26:52;106.70;;;50.33;;
35028;SDS011;35394;54.282;10.070;2023-12-07T01:27:23;114.05;;;51.88;;
35028;SDS011;35394;54.282;10.070;2023-12-07T01:27:53;143.07;;;58.90;;
35028;SDS011;35394;54.282;10.070;2023-12-07T01:28:25;122.43;;;55.00;;
35028;SDS011;35394;54.282;10.070;2023-12-07T01:28:55;156.85;;;66.15;;
35028;SDS011;35394;54.282;10.070;2023-12-07T01:29:26;172.80;;;71.80;;
35028;SDS011;35394;54.282;10.070;2023-12-07T01:29:56;157.00;;;67.25;;
35028;SDS011;35394;54.282;10.070;2023-12-07T01:30:27;163.05;;;65.13;;
35028;SDS011;35394;54.282;10.070;2023-12-07T01:30:57;154.03;;;65.20;;
35028;SDS011;35394;54.282;10.070;2023-12-07T01:31:29;143.38;;;61.47;;
35028;SDS011;35394;54.282;10.070;2023-12-07T01:32:00;137.23;;;59.30;;
35028;SDS011;35394;54.282;10.070;2023-12-07T01:32:30;142.27;;;60.20;;
35028;SDS011;35394;54.282;10.070;2023-12-07T01:33:01;131.38;;;58.63;;
35028;SDS011;35394;54.282;10.070;2023-12-07T01:33:31;147.03;;;61.73;;
35028;SDS011;35394;54.282;10.070;2023-12-07T01:34:02;132.88;;;58.80;;
35028;SDS011;35394;54.282;10.070;2023-12-07T01:34:32;136.38;;;59.67;;
35028;SDS011;35394;54.282;10.070;2023-12-07T01:35:03;149.50;;;64.37;;
35028;SDS011;35394;54.282;10.070;2023-12-07T01:35:34;136.80;;;58.67;;
35028;SDS011;35394;54.282;10.070;2023-12-07T01:36:05;126.35;;;55.60;;
35028;SDS011;35394;54.282;10.070;2023-12-07T01:36:36;132.02;;;59.33;;
35028;SDS011;35394;54.282;10.070;2023-12-07T01:37:07;136.95;;;59.28;;
35028;SDS011;35394;54.282;10.070;2023-12-07T01:37:37;123.28;;;56.25;;
35028;SDS011;35394;54.282;10.070;2023-12-07T01:38:08;128.03;;;56.83;;
35028;SDS011;35394;54.282;10.070;2023-12-07T01:38:38;158.23;;;68.35;;
35028;SDS011;35394;54.282;10.070;2023-12-07T01:39:09;146.02;;;62.72;;
35028;SDS011;35394;54.282;10.070;2023-12-07T01:39:43;141.57;;;60.67;;
35028;SDS011;35394;54.282;10.070;2023-12-07T01:40:14;123.50;;;56.72;;
35028;SDS011;35394;54.282;10.070;2023-12-07T01:40:45;118.37;;;54.87;;
35028;SDS011;35394;54.282;10.070;2023-12-07T01:41:15;125.70;;;57.10;;
35028;SDS011;35394;54.282;10.070;2023-12-07T01:41:46;155.63;;;67.40;;
35028;SDS011;35394;54.282;10.070;2023-12-07T01:42:17;143.40;;;63.30;;
35028;SDS011;35394;54.282;10.070;2023-12-07T01:42:50;130.83;;;57.83;;
35028;SDS011;35394;54.282;10.070;2023-12-07T01:43:22;136.93;;;59.25;;
35028;SDS011;35394;54.282;10.070;2023-12-07T01:43:53;126.32;;;56.83;;
35028;SDS011;35394;54.282;10.070;2023-12-07T01:44:23;122.03;;;56.53;;
35028;SDS011;35394;54.282;10.070;2023-12-07T01:44:55;110.13;;;53.00;;
35028;SDS011;35394;54.282;10.070;2023-12-07T01:45:26;124.30;;;57.97;;
35028;SDS011;35394;54.282;10.070;2023-12-07T01:45:57;130.95;;;58.30;;
35028;SDS011;35394;54.282;10.070;2023-12-07T01:46:28;127.20;;;56.58;;
35028;SDS011;35394;54.282;10.070;2023-12-07T01:46:58;129.93;;;57.60;;
35028;SDS011;35394;54.282;10.070;2023-12-07T01:47:29;122.72;;;56.67;;
35028;SDS011;35394;54.282;10.070;2023-12-07T01:48:00;129.65;;;58.65;;
35028;SDS011;35394;54.282;10.070;2023-12-07T01:48:31;121.20;;;55.58;;
35028;SDS011;35394;54.282;10.070;2023-12-07T01:49:02;111.50;;;53.13;;
35028;SDS011;35394;54.282;10.070;2023-12-07T01:49:32;106.73;;;50.77;;
35028;SDS011;35394;54.282;10.070;2023-12-07T01:50:04;106.60;;;50.92;;
35028;SDS011;35394;54.282;10.070;2023-12-07T01:50:35;97.70;;;49.33;;
35028;SDS011;35394;54.282;10.070;2023-12-07T01:51:06;112.20;;;52.45;;
35028;SDS011;35394;54.282;10.070;2023-12-07T01:51:37;106.15;;;51.33;;
35028;SDS011;35394;54.282;10.070;2023-12-07T01:52:08;117.07;;;53.08;;
35028;SDS011;35394;54.282;10.070;2023-12-07T01:52:39;115.13;;;54.08;;
35028;SDS011;35394;54.282;10.070;2023-12-07T01:53:14;105.30;;;51.63;;
35028;SDS011;35394;54.282;10.070;2023-12-07T01:53:45;99.18;;;49.13;;
35028;SDS011;35394;54.282;10.070;2023-12-07T01:54:17;105.43;;;51.97;;
35028;SDS011;35394;54.282;10.070;2023-12-07T01:54:48;93.45;;;47.47;;
35028;SDS011;35394;54.282;10.070;2023-12-07T01:55:20;93.33;;;48.17;;
35028;SDS011;35394;54.282;10.070;2023-12-07T01:55:51;112.15;;;52.47;;
35028;SDS011;35394;54.282;10.070;2023-12-07T01:56:23;111.90;;;52.95;;
35028;SDS011;35394;54.282;10.070;2023-12-07T01:56:55;103.05;;;50.42;;
35028;SDS011;35394;54.282;10.070;2023-12-07T01:57:26;113.57;;;52.25;;
35028;SDS011;35394;54.282;10.070;2023-12-07T01:57:57;98.75;;;49.35;;
35028;SDS011;35394;54.282;10.070;2023-12-07T01:58:28;108.47;;;51.33;;
35028;SDS011;35394;54.282;10.070;2023-12-07T01:58:59;95.15;;;47.90;;
35028;SDS011;35394;54.282;10.070;2023-12-07T01:59:29;95.23;;;47.47;;
35028;SDS011;35394;54.282;10.070;2023-12-07T02:00:00;100.85;;;48.65;;
35028;SDS011;35394;54.282;10.070;2023-12-07T02:00:31;94.30;;;47.22;;
35028;SDS011;35394;54.282;10.070;2023-12-07T02:01:03;92.43;;;47.20;;
35028;SDS011;35394;54.282;10.070;2023-12-07T02:01:34;98.35;;;48.65;;
35028;SDS011;35394;54.282;10.070;2023-12-07T02:02:05;108.63;;;52.53;;
35028;SDS011;35394;54.282;10.070;2023-12-07T02:02:36;104.18;;;50.92;;
35028;SDS011;35394;54.282;10.070;2023-12-07T02:03:06;97.38;;;48.10;;
35028;SDS011;35394;54.282;10.070;2023-12-07T02:03:40;90.77;;;46.07;;
35028;SDS011;35394;54.282;10.070;2023-12-07T02:04:11;88.97;;;45.92;;
35028;SDS011;35394;54.282;10.070;2023-12-07T02:04:41;96.53;;;46.75;;
35028;SDS011;35394;54.282;10.070;2023-12-07T02:05:12;87.90;;;45.22;;
35028;SDS011;35394;54.282;10.070;2023-12-07T02:05:46;89.43;;;45.80;;
35028;SDS011;35394;54.282;10.070;2023-12-07T02:06:17;102.22;;;50.22;;
35028;SDS011;35394;54.282;10.070;2023-12-07T02:06:48;92.22;;;46.83;;
35028;SDS011;35394;54.282;10.070;2023-12-07T02:07:19;101.90;;;49.00;;
35028;SDS011;35394;54.282;10.070;2023-12-07T02:07:49;89.45;;;46.03;;
35028;SDS011;35394;54.282;10.070;2023-12-07T02:08:20;89.60;;;45.40;;
35028;SDS011;35394;54.282;10.070;2023-12-07T02:08:50;88.67;;;43.33;;
35028;SDS011;35394;54.282;10.070;2023-12-07T02:09:21;90.60;;;44.23;;
35028;SDS011;35394;54.282;10.070;2023-12-07T02:09:52;88.55;;;43.50;;
35028;SDS011;35394;54.282;10.070;2023-12-07T02:10:23;100.93;;;47.95;;
35028;SDS011;35394;54.282;10.070;2023-12-07T02:10:54;102.65;;;50.17;;
35028;SDS011;35394;54.282;10.070;2023-12-07T02:11:25;85.57;;;45.03;;
35028;SDS011;35394;54.282;10.070;2023-12-07T02:11:56;104.55;;;51.38;;
35028;SDS011;35394;54.282;10.070;2023-12-07T02:12:27;107.65;;;53.05;;
35028;SDS011;35394;54.282;10.070;2023-12-07T02:12:59;96.00;;;48.75;;
35028;SDS011;35394;54.282;10.070;2023-12-07T02:13:30;100.17;;;51.20;;
35028;SDS011;35394;54.282;10.070;2023-12-07T02:14:00;89.55;;;46.47;;
35028;SDS011;35394;54.282;10.070;2023-12-07T02:14:31;98.80;;;49.83;;
35028;SDS011;35394;54.282;10.070;2023-12-07T02:15:04;109.78;;;52.35;;
35028;SDS011;35394;54.282;10.070;2023-12-07T02:15:36;96.03;;;48.28;;
35028;SDS011;35394;54.282;10.070;2023-12-07T02:16:09;96.32;;;48.28;;
35028;SDS011;35394;54.282;10.070;2023-12-07T02:17:08;94.20;;;45.63;;
35028;SDS011;35394;54.282;10.070;2023-12-07T02:18:38;91.13;;;46.65;;
35028;SDS011;35394;54.282;10.070;2023-12-07T02:20:24;87.93;;;44.38;;
35028;SDS011;35394;54.282;10.070;2023-12-07T02:21:04;88.43;;;45.63;;
35028;SDS011;35394;54.282;10.070;2023-12-07T02:21:56;103.47;;;48.55;;
35028;SDS011;35394;54.282;10.070;2023-12-07T02:22:35;103.28;;;48.05;;
35028;SDS011;35394;54.282;10.070;2023-12-07T02:23:09;96.47;;;46.95;;
35028;SDS011;35394;54.282;10.070;2023-12-07T02:23:41;108.47;;;50.40;;
35028;SDS011;35394;54.282;10.070;2023-12-07T02:24:12;110.65;;;50.22;;
35028;SDS011;35394;54.282;10.070;2023-12-07T02:25:01;92.25;;;45.70;;
35028;SDS011;35394;54.282;10.070;2023-12-07T02:25:44;92.57;;;45.15;;
35028;SDS011;35394;54.282;10.070;2023-12-07T02:26:50;98.90;;;46.47;;
35028;SDS011;35394;54.282;10.070;2023-12-07T02:27:32;90.32;;;43.92;;
35028;SDS011;35394;54.282;10.070;2023-12-07T02:28:06;107.15;;;49.05;;
35028;SDS011;35394;54.282;10.070;2023-12-07T02:28:37;98.00;;;45.13;;
35028;SDS011;35394;54.282;10.070;2023-12-07T02:29:07;89.05;;;43.38;;
35028;SDS011;35394;54.282;10.070;2023-12-07T02:29:38;99.43;;;47.20;;
35028;SDS011;35394;54.282;10.070;2023-12-07T02:30:10;94.22;;;45.83;;
35028;SDS011;35394;54.282;10.070;2023-12-07T02:30:41;85.72;;;43.33;;
35028;SDS011;35394;54.282;10.070;2023-12-07T02:31:12;89.90;;;43.70;;
35028;SDS011;35394;54.282;10.070;2023-12-07T02:31:43;93.10;;;43.80;;
35028;SDS011;35394;54.282;10.070;2023-12-07T02:32:13;82.27;;;41.17;;
35028;SDS011;35394;54.282;10.070;2023-12-07T02:32:45;85.07;;;41.35;;
35028;SDS011;35394;54.282;10.070;2023-12-07T02:33:15;84.00;;;41.53;;
35028;SDS011;35394;54.282;10.070;2023-12-07T02:33:46;74.50;;;38.08;;
35028;SDS011;35394;54.282;10.070;2023-12-07T02:34:17;80.93;;;40.10;;
35028;SDS011;35394;54.282;10.070;2023-12-07T02:34:49;100.93;;;45.28;;
35028;SDS011;35394;54.282;10.070;2023-12-07T02:35:20;94.57;;;45.22;;
35028;SDS011;35394;54.282;10.070;2023-12-07T02:35:51;82.43;;;42.22;;
35028;SDS011;35394;54.282;10.070;2023-12-07T02:36:22;90.53;;;42.70;;
35028;SDS011;35394;54.282;10.070;2023-12-07T02:36:53;79.07;;;40.20;;
35028;SDS011;35394;54.282;10.070;2023-12-07T02:37:28;94.70;;;43.50;;
35028;SDS011;35394;54.282;10.070;2023-12-07T02:38:00;79.55;;;39.53;;
35028;SDS011;35394;54.282;10.070;2023-12-07T02:38:31;94.45;;;44.17;;
35028;SDS011;35394;54.282;10.070;2023-12-07T02:39:02;93.97;;;43.35;;
35028;SDS011;35394;54.282;10.070;2023-12-07T02:39:36;96.03;;;43.58;;
35028;SDS011;35394;54.282;10.070;2023-12-07T02:40:07;90.68;;;42.55;;
35028;SDS011;35394;54.282;10.070;2023-12-07T02:40:40;82.50;;;39.97;;
35028;SDS011;35394;54.282;10.070;2023-12-07T02:41:11;83.10;;;39.78;;
35028;SDS011;35394;54.282;10.070;2023-12-07T02:41:42;86.40;;;40.90;;
35028;SDS011;35394;54.282;10.070;2023-12-07T02:42:13;87.03;;;40.90;;
35028;SDS011;35394;54.282;10.070;2023-12-07T02:42:44;80.63;;;39.47;;
35028;SDS011;35394;54.282;10.070;2023-12-07T02:43:15;84.40;;;41.17;;
35028;SDS011;35394;54.282;10.070;2023-12-07T02:43:46;76.93;;;38.90;;
35028;SDS011;35394;54.282;10.070;2023-12-07T02:44:17;85.88;;;41.80;;
35028;SDS011;35394;54.282;10.070;2023-12-07T02:44:47;93.80;;;43.23;;
35028;SDS011;35394;54.282;10.070;2023-12-07T02:45:18;79.22;;;39.95;;
35028;SDS011;35394;54.282;10.070;2023-12-07T02:45:49;109.40;;;45.53;;
35028;SDS011;35394;54.282;10.070;2023-12-07T02:46:20;85.78;;;42.22;;
35028;SDS011;35394;54.282;10.070;2023-12-07T02:46:50;88.07;;;41.65;;
35028;SDS011;35394;54.282;10.070;2023-12-07T02:47:21;75.87;;;37.87;;
35028;SDS011;35394;54.282;10.070;2023-12-07T02:47:52;90.20;;;42.03;;
35028;SDS011;35394;54.282;10.070;2023-12-07T02:48:23;82.72;;;39.08;;
35028;SDS011;35394;54.282;10.070;2023-12-07T02:48:54;80.22;;;39.30;;
35028;SDS011;35394;54.282;10.070;2023-12-07T02:49:24;83.78;;;39.13;;
35028;SDS011;35394;54.282;10.070;2023-12-07T02:49:55;85.47;;;40.67;;
35028;SDS011;35394;54.282;10.070;2023-12-07T02:50:25;97.50;;;43.25;;
35028;SDS011;35394;54.282;10.070;2023-12-07T02:50:56;92.88;;;42.83;;
35028;SDS011;35394;54.282;10.070;2023-12-07T02:51:26;88.73;;;41.80;;
35028;SDS011;35394;54.282;10.070;2023-12-07T02:51:57;82.68;;;38.80;;
35028;SDS011;35394;54.282;10.070;2023-12-07T02:52:28;87.20;;;39.50;;
35028;SDS011;35394;54.282;10.070;2023-12-07T02:52:58;88.43;;;41.00;;
35028;SDS011;35394;54.282;10.070;2023-12-07T02:53:29;84.97;;;40.97;;
35028;SDS011;35394;54.282;10.070;2023-12-07T02:54:00;76.03;;;36.42;;
35028;SDS011;35394;54.282;10.070;2023-12-07T02:54:30;81.27;;;38.90;;
35028;SDS011;35394;54.282;10.070;2023-12-07T02:55:01;82.50;;;39.95;;
35028;SDS011;35394;54.282;10.070;2023-12-07T02:55:32;78.88;;;40.50;;
35028;SDS011;35394;54.282;10.070;2023-12-07T02:56:03;74.28;;;37.38;;
35028;SDS011;35394;54.282;10.070;2023-12-07T02:56:34;75.80;;;37.13;;
35028;SDS011;35394;54.282;10.070;2023-12-07T02:57:04;83.60;;;39.00;;
35028;SDS011;35394;54.282;10.070;2023-12-07T02:57:35;82.00;;;38.93;;
35028;SDS011;35394;54.282;10.070;2023-12-07T02:58:05;86.90;;;40.33;;
35028;SDS011;35394;54.282;10.070;2023-12-07T02:58:36;79.88;;;38.78;;
35028;SDS011;35394;54.282;10.070;2023-12-07T02:59:07;75.80;;;36.60;;
35028;SDS011;35394;54.282;10.070;2023-12-07T02:59:37;79.13;;;37.50;;
35028;SDS011;35394;54.282;10.070;2023-12-07T03:00:08;72.60;;;36.65;;
35028;SDS011;35394;54.282;10.070;2023-12-07T03:00:40;82.22;;;37.75;;
35028;SDS011;35394;54.282;10.070;2023-12-07T03:01:10;83.37;;;39.00;;